Time;durP1;ratioP1;P1;durP2;ratioP2;P2;SDS_P1;SDS_P2;PMS_P1;PMS_P2;Temp;Humidity;BMP_temperature;BMP_pressure;BME280_temperature;BME280_humidity;BME280_pressure;Samples;Min_cycle;Max_cycle;Signal;HPM_P1;HPM_P2
2021/01/14 00:00:27;;;;;;;9.80;5.10;;;;;;;1.78;74.67;98917.41;2081346;81;28421;-70
2021/01/14 00:03:31;;;;;;;11.05;5.30;;;;;;;1.73;74.66;98914.09;2024353;86;27776;-66
2021/01/14 00:06:33;;;;;;;11.28;4.97;;;;;;;1.70;74.70;98914.64;2046461;85;32954;-69
2021/01/14 00:09:35;;;;;;;11.75;4.95;;;;;;;1.65;74.68;98918.77;2018748;85;29603;-66
2021/01/14 00:12:39;;;;;;;5.53;3.67;;;;;;;1.62;74.71;98917.11;2019286;85;27854;-71
2021/01/14 00:15:42;;;;;;;9.67;3.63;;;;;;;1.58;74.70;98920.77;2019863;86;28064;-74
2021/01/14 00:18:44;;;;;;;10.10;4.60;;;;;;;1.55;74.68;98922.19;2023321;85;32024;-68
2021/01/14 00:21:46;;;;;;;11.78;3.90;;;;;;;1.51;74.75;98910.88;2077955;81;33572;-71
2021/01/14 00:24:48;;;;;;;7.78;3.17;;;;;;;1.48;74.74;98908.34;2119790;81;28849;-72
2021/01/14 00:27:51;;;;;;;5.05;2.75;;;;;;;1.43;74.71;98910.27;2120507;80;27748;-70
2021/01/14 00:30:54;;;;;;;7.87;3.80;;;;;;;1.41;74.84;98909.94;2143943;81;28916;-70
2021/01/14 00:33:56;;;;;;;11.28;3.35;;;;;;;1.40;74.90;98919.64;2113856;81;32395;-64
2021/01/14 00:40:30;;;;;;;8.05;3.65;;;;;;;1.39;75.26;98909.13;2108002;81;28698;-66
2021/01/14 00:43:31;;;;;;;5.90;2.67;;;;;;;1.40;75.45;98909.09;2147833;81;27725;-67
2021/01/14 00:46:34;;;;;;;7.90;3.40;;;;;;;1.45;75.60;98911.56;2178248;81;28876;-65
2021/01/14 00:49:36;;;;;;;9.50;3.90;;;;;;;1.45;75.64;98916.37;2146003;81;31109;-65
2021/01/14 00:52:39;;;;;;;9.13;4.25;;;;;;;1.50;75.71;98918.84;2146928;81;32276;-65
2021/01/14 00:55:41;;;;;;;8.35;3.80;;;;;;;1.50;75.67;98914.44;2110285;83;29825;-65
2021/01/14 00:58:43;;;;;;;5.67;3.45;;;;;;;1.46;75.64;98922.05;2131401;81;27723;-65
2021/01/14 01:01:45;;;;;;;9.18;3.90;;;;;;;1.38;75.68;98913.55;2096974;81;28629;-65
2021/01/14 01:04:51;;;;;;;6.83;3.90;;;;;;;1.35;75.87;98913.66;2110497;82;31189;-65
2021/01/14 01:07:57;;;;;;;7.53;3.72;;;;;;;1.29;75.89;98913.41;2097967;81;34069;-65
2021/01/14 01:11:00;;;;;;;6.40;2.62;;;;;;;1.28;76.06;98913.00;2110823;81;28858;-65
2021/01/14 01:14:03;;;;;;;7.40;3.10;;;;;;;1.28;76.08;98917.41;2147350;81;27640;-65
2021/01/14 01:17:06;;;;;;;3.70;2.60;;;;;;;1.26;76.14;98916.15;2124687;81;28940;-65
2021/01/14 01:20:10;;;;;;;6.10;2.55;;;;;;;1.28;76.24;98926.20;2148883;81;31216;-65
2021/01/14 01:23:12;;;;;;;2.85;2.33;;;;;;;1.28;76.26;98926.20;2116317;81;33364;-65
2021/01/14 01:26:19;;;;;;;5.87;2.47;;;;;;;1.26;76.18;98938.57;2114417;81;28641;-65
2021/01/14 01:29:21;;;;;;;5.12;2.40;;;;;;;1.23;76.14;98938.67;2105004;83;27666;-66
2021/01/14 01:32:24;;;;;;;5.87;1.55;;;;;;;1.20;76.12;98942.28;2161270;81;28849;-65
2021/01/14 01:35:27;;;;;;;2.75;1.60;;;;;;;1.15;76.12;98946.84;2104242;83;30166;-65
2021/01/14 01:38:29;;;;;;;4.03;1.92;;;;;;;1.12;76.12;98953.52;2088726;83;33571;-65
2021/01/14 01:41:32;;;;;;;4.72;1.98;;;;;;;1.09;76.16;98960.22;2141025;82;28868;-65
2021/01/14 01:44:34;;;;;;;5.20;2.40;;;;;;;1.08;76.22;98960.28;2079883;82;27720;-65
2021/01/14 01:47:37;;;;;;;3.47;1.42;;;;;;;1.03;76.24;98963.92;2089018;83;29586;-65
2021/01/14 01:50:40;;;;;;;2.35;1.30;;;;;;;1.01;76.31;98963.09;2132134;81;30958;-65
2021/01/14 01:53:42;;;;;;;4.83;1.87;;;;;;;0.98;76.45;98969.81;2118453;81;33243;-65
2021/01/14 01:56:44;;;;;;;3.35;1.80;;;;;;;0.96;76.52;98971.63;2120890;81;29377;-65
2021/01/14 01:59:47;;;;;;;2.95;1.60;;;;;;;0.95;76.58;98973.86;2119217;81;27674;-65
2021/01/14 02:02:50;;;;;;;2.65;1.30;;;;;;;0.96;76.67;98974.27;2120552;81;28617;-65
2021/01/14 02:05:52;;;;;;;3.75;1.27;;;;;;;0.93;76.54;98984.91;2098441;81;31638;-65
2021/01/14 02:08:59;;;;;;;3.52;2.00;;;;;;;0.90;76.61;98985.88;2154016;81;33106;-64
2021/01/14 02:12:04;;;;;;;2.40;1.32;;;;;;;0.89;76.62;98988.55;2185981;81;29728;-65
2021/01/14 02:15:07;;;;;;;2.95;1.62;;;;;;;0.86;76.60;98989.95;2146049;81;28176;-65
2021/01/14 02:18:10;;;;;;;5.47;2.00;;;;;;;0.84;76.70;98991.77;2169765;81;29798;-66
2021/01/14 02:21:14;;;;;;;4.92;2.20;;;;;;;0.86;76.71;98997.86;2182062;81;32529;-67
2021/01/14 02:24:24;;;;;;;6.20;2.95;;;;;;;0.85;76.66;98994.37;2149056;81;33249;-66
2021/01/14 02:27:28;;;;;;;6.78;2.70;;;;;;;0.84;76.66;99005.84;2122906;81;29385;-67
2021/01/14 02:30:30;;;;;;;8.93;3.33;;;;;;;0.87;76.73;99016.29;2113180;82;27709;-68
2021/01/14 02:33:33;;;;;;;6.87;2.80;;;;;;;0.86;76.61;99014.56;2091608;82;29567;-67
2021/01/14 02:36:35;;;;;;;8.20;2.80;;;;;;;0.86;76.63;99017.64;2120875;81;31242;-65
2021/01/14 02:39:38;;;;;;;4.25;2.65;;;;;;;0.84;76.61;99018.13;2148104;81;33105;-67
2021/01/14 02:42:40;;;;;;;6.25;2.67;;;;;;;0.85;76.66;99029.09;2124430;81;28715;-67
2021/01/14 02:45:42;;;;;;;4.95;2.47;;;;;;;0.83;76.60;99021.24;2124759;81;28134;-66
2021/01/14 02:49:06;;;;;;;8.95;3.10;;;;;;;0.84;76.68;99030.00;2134502;81;28824;-65
2021/01/14 02:52:11;;;;;;;4.65;2.70;;;;;;;0.82;76.58;99035.80;2147695;81;31153;-65
2021/01/14 02:55:13;;;;;;;7.17;2.67;;;;;;;0.81;76.53;99032.28;2122844;81;32733;-66
2021/01/14 02:58:15;;;;;;;7.15;3.58;;;;;;;0.82;76.53;99041.08;2148110;81;29922;-66
2021/01/14 03:01:17;;;;;;;5.08;2.52;;;;;;;0.80;76.52;99038.94;2133965;81;28162;-69
2021/01/14 03:04:19;;;;;;;14.03;4.20;;;;;;;0.78;76.47;99040.28;2078011;83;29597;-65
2021/01/14 03:07:22;;;;;;;7.65;3.37;;;;;;;0.78;76.55;99040.75;2132104;81;31131;-66
2021/01/14 03:10:23;;;;;;;9.58;3.22;;;;;;;0.78;76.57;99044.23;2147540;81;33337;-69
2021/01/14 03:13:26;;;;;;;8.43;3.65;;;;;;;0.79;76.56;99049.91;2109331;81;28655;-67
2021/01/14 03:16:40;;;;;;;6.10;2.67;;;;;;;0.81;76.68;99053.84;2096768;83;28194;-68
2021/01/14 03:19:42;;;;;;;9.65;3.47;;;;;;;0.80;76.67;99055.60;2141027;83;27985;-68
2021/01/14 03:22:44;;;;;;;10.50;3.58;;;;;;;0.82;76.72;99062.16;2075342;83;30831;-65
2021/01/14 03:25:46;;;;;;;8.58;3.47;;;;;;;0.86;76.82;99064.66;2103789;80;33570;-66
2021/01/14 03:28:49;;;;;;;7.40;2.83;;;;;;;0.86;76.65;99063.77;2134622;80;28974;-69
2021/01/14 03:31:51;;;;;;;7.75;3.75;;;;;;;0.86;76.69;99063.34;2157749;81;27697;-69
2021/01/14 03:34:53;;;;;;;10.50;3.58;;;;;;;0.90;76.75;99068.94;2114182;82;28666;-66
2021/01/14 03:37:55;;;;;;;11.78;3.98;;;;;;;0.92;76.60;99074.15;2113558;81;31058;-65
2021/01/14 03:40:58;;;;;;;6.60;2.92;;;;;;;0.94;76.75;99074.97;2120902;81;33115;-68
2021/01/14 03:44:01;;;;;;;8.20;3.50;;;;;;;0.97;76.58;99079.28;2145087;81;30115;-69
2021/01/14 03:47:03;;;;;;;6.25;2.60;;;;;;;0.95;76.57;99079.34;2108112;83;27714;-65
2021/01/14 03:50:07;;;;;;;5.25;2.55;;;;;;;0.96;76.52;99089.41;2102421;81;29649;-68
2021/01/14 03:53:09;;;;;;;9.95;2.77;;;;;;;0.96;76.42;99091.61;2118089;81;31160;-70
2021/01/14 03:56:11;;;;;;;4.60;2.20;;;;;;;1.00;76.39;99098.97;2149751;81;33498;-70
2021/01/14 03:59:13;;;;;;;6.75;2.42;;;;;;;1.02;76.43;99098.00;2126550;81;29166;-66
2021/01/14 04:02:15;;;;;;;3.90;2.33;;;;;;;1.05;76.38;99101.87;2115736;82;27732;-65
2021/01/14 04:05:17;;;;;;;6.35;2.65;;;;;;;1.07;76.33;99099.20;2103452;81;28631;-68
2021/01/14 04:08:19;;;;;;;6.30;2.45;;;;;;;1.08;76.30;99102.69;2139286;81;31174;-65
2021/01/14 04:11:21;;;;;;;4.67;2.95;;;;;;;1.09;76.33;99106.59;2096588;81;32915;-65
2021/01/14 04:14:23;;;;;;;9.98;2.80;;;;;;;1.12;76.29;99105.19;2098046;83;28903;-69
2021/01/14 04:17:29;;;;;;;5.72;2.37;;;;;;;1.09;76.16;99107.91;2118497;81;27750;-68
2021/01/14 04:20:31;;;;;;;;;;;;;;;1.06;76.06;99115.47;2154735;81;28698;-66
2021/01/14 04:23:33;;;;;;;5.85;2.52;;;;;;;1.03;76.07;99116.02;2121799;81;30825;-65
2021/01/14 04:26:35;;;;;;;5.72;3.17;;;;;;;1.00;76.21;99113.00;2078426;84;34564;-65
2021/01/14 04:29:38;;;;;;;5.28;2.42;;;;;;;0.99;76.06;99117.89;2141091;83;29152;-65
2021/01/14 04:32:40;;;;;;;6.75;2.55;;;;;;;0.97;76.06;99118.39;2107446;83;27721;-66
2021/01/14 04:35:51;;;;;;;9.23;4.20;;;;;;;0.98;76.09;99129.36;2132172;83;29017;-67
2021/01/14 04:38:53;;;;;;;8.20;3.02;;;;;;;0.95;75.92;99131.19;2065666;83;30940;-67
2021/01/14 04:41:59;;;;;;;8.63;3.20;;;;;;;0.92;75.99;99130.84;2123475;81;32932;-68
2021/01/14 04:45:05;;;;;;;7.53;3.05;;;;;;;0.92;76.11;99140.06;2147574;81;29174;-67
2021/01/14 04:48:10;;;;;;;6.37;2.83;;;;;;;0.91;76.03;99129.11;2119594;81;28257;-68
2021/01/14 04:51:14;;;;;;;;;;;;;;;0.89;75.94;99134.88;2181349;81;30203;-67
2021/01/14 04:54:21;;;;;;;6.47;2.98;;;;;;;0.86;75.87;99146.83;2144816;81;31937;-67
2021/01/14 04:57:25;;;;;;;10.43;3.10;;;;;;;0.83;75.92;99141.20;2178552;81;34492;-66
2021/01/14 05:00:28;;;;;;;5.15;2.90;;;;;;;0.84;75.91;99148.20;2143193;81;30017;-67
2021/01/14 05:03:34;;;;;;;4.90;2.62;;;;;;;0.84;75.77;99152.59;2141542;83;27781;-66
2021/01/14 05:06:39;;;;;;;5.37;3.08;;;;;;;0.80;75.76;99158.41;2107518;83;28627;-65
2021/01/14 05:09:42;;;;;;;8.93;3.02;;;;;;;0.74;75.62;99158.14;2108277;83;31140;-66
2021/01/14 05:12:44;;;;;;;6.90;3.17;;;;;;;0.69;75.47;99164.45;2115974;81;34015;-65
2021/01/14 05:15:46;;;;;;;7.70;2.95;;;;;;;0.62;75.49;99175.61;2086444;81;29182;-67
2021/01/14 05:18:48;;;;;;;8.70;3.50;;;;;;;0.59;75.61;99171.73;2120835;81;27894;-67
2021/01/14 05:21:51;;;;;;;4.03;2.47;;;;;;;0.56;75.59;99179.72;2120361;81;28620;-66
2021/01/14 05:25:11;;;;;;;6.35;3.20;;;;;;;0.54;75.71;99185.05;2146552;81;30923;-66
2021/01/14 05:28:16;;;;;;;10.08;3.25;;;;;;;0.54;75.75;99190.75;2119901;81;33109;-66
2021/01/14 05:31:19;;;;;;;5.08;2.87;;;;;;;0.55;75.78;99198.64;2120036;81;29820;-65
2021/01/14 05:34:22;;;;;;;8.20;3.55;;;;;;;0.55;76.00;99200.39;2124260;81;27753;-66
2021/01/14 05:37:25;;;;;;;8.43;3.50;;;;;;;0.54;76.00;99196.91;2099114;81;28619;-66
2021/01/14 05:40:29;;;;;;;4.78;3.15;;;;;;;0.54;76.09;99196.02;2119852;81;30947;-66
2021/01/14 05:43:31;;;;;;;5.20;3.00;;;;;;;0.56;76.21;99202.13;2107188;83;34398;-66
2021/01/14 05:46:34;;;;;;;7.42;3.70;;;;;;;0.59;76.20;99203.36;2063706;83;29922;-66
2021/01/14 05:49:37;;;;;;;5.95;3.30;;;;;;;0.64;76.15;99218.61;2093196;80;27808;-66
2021/01/14 05:52:40;;;;;;;10.05;3.60;;;;;;;0.67;76.22;99221.61;2132901;81;28676;-67
2021/01/14 05:55:44;;;;;;;7.92;3.83;;;;;;;0.71;76.22;99231.17;2149855;81;31286;-66
2021/01/14 05:58:47;;;;;;;7.60;3.65;;;;;;;0.73;76.24;99230.21;2102342;81;33210;-66
2021/01/14 06:01:56;;;;;;;8.48;3.47;;;;;;;0.74;76.16;99239.00;2178147;81;30196;-67
2021/01/14 06:04:59;;;;;;;4.47;3.35;;;;;;;0.71;76.14;99237.30;2067403;83;27781;-67
2021/01/14 06:08:02;;;;;;;5.92;3.20;;;;;;;0.71;76.08;99250.47;2111504;83;28919;-66
2021/01/14 06:11:21;;;;;;;6.15;3.65;;;;;;;0.67;76.02;99252.77;2140825;83;31186;-67
2021/01/14 06:14:31;;;;;;;9.50;4.08;;;;;;;0.67;76.01;99257.19;2110699;81;33237;-66
2021/01/14 06:17:38;;;;;;;11.08;4.00;;;;;;;0.67;76.15;99269.05;2082616;81;28957;-66
2021/01/14 06:20:52;;;;;;;8.43;4.20;;;;;;;0.68;76.18;99272.95;2113237;83;27739;-67
2021/01/14 06:23:55;;;;;;;10.43;4.30;;;;;;;0.68;76.21;99284.81;2111157;81;28858;-66
2021/01/14 06:27:07;;;;;;;9.43;4.15;;;;;;;0.69;76.16;99278.64;2144966;81;31119;-66
2021/01/14 06:30:11;;;;;;;9.23;4.80;;;;;;;0.69;76.17;99285.23;2116473;81;33026;-67
2021/01/14 06:33:15;;;;;;;11.57;4.35;;;;;;;0.68;76.15;99290.08;2120104;81;29184;-66
2021/01/14 06:36:20;;;;;;;12.53;5.03;;;;;;;0.67;76.15;99294.09;2144042;81;27675;-67
2021/01/14 06:39:26;;;;;;;7.47;4.42;;;;;;;0.69;76.30;99301.05;2119962;81;28815;-67
2021/01/14 06:42:34;;;;;;;10.95;6.03;;;;;;;0.71;76.21;99309.78;2119271;81;31162;-68
2021/01/14 07:15:11;;;;;;;14.13;5.40;;;;;;;1.27;75.89;99371.66;2288004;75;27709;-67
2021/01/14 07:18:15;;;;;;;11.57;5.75;;;;;;;1.28;75.84;99377.34;2253876;77;27709;-69
2021/01/14 07:21:43;;;;;;;9.60;5.83;;;;;;;1.28;75.86;99383.94;2255577;76;28828;-69
2021/01/14 07:24:46;;;;;;;9.45;6.40;;;;;;;1.29;75.95;99396.23;2298054;75;30994;-68
2021/01/14 07:27:49;;;;;;;11.12;6.50;;;;;;;1.25;75.93;99396.32;2324207;75;34040;-68
2021/01/14 07:42:47;;;;;;;11.77;8.67;;;;;;;1.87;75.56;99432.49;2291226;76;27726;-63
2021/01/14 07:45:51;;;;;;;10.25;7.80;;;;;;;1.88;75.30;99433.38;2256589;75;27704;-62
2021/01/14 07:48:54;;;;;;;14.65;8.58;;;;;;;1.86;75.30;99439.16;2218873;75;28839;-63
2021/01/14 07:51:57;;;;;;;15.10;9.60;;;;;;;1.84;75.38;99450.21;2215141;77;31664;-62
2021/01/14 07:55:07;;;;;;;10.85;7.08;;;;;;;1.79;75.34;99451.66;2267502;76;34069;-62
2021/01/14 07:58:23;;;;;;;16.87;9.53;;;;;;;1.74;75.43;99460.16;2243829;78;28548;-63
2021/01/14 08:01:27;;;;;;;16.52;9.98;;;;;;;1.68;75.40;99458.55;2245273;77;27637;-62
2021/01/14 08:04:29;;;;;;;14.25;8.20;;;;;;;1.62;75.32;99466.63;2216027;78;30349;-63
2021/01/14 08:07:32;;;;;;;14.70;8.33;;;;;;;1.58;75.46;99471.56;2229309;78;32608;-64
2021/01/14 08:10:35;;;;;;;13.20;7.70;;;;;;;1.53;75.50;99473.48;2216462;79;33188;-63
2021/01/14 08:14:07;;;;;;;19.70;11.35;;;;;;;1.49;75.59;99476.19;2229540;77;29024;-64
2021/01/14 08:17:24;;;;;;;15.63;8.80;;;;;;;1.54;75.73;99480.48;2212134;78;27700;-63
2021/01/14 08:20:27;;;;;;;22.73;13.20;;;;;;;1.56;75.75;99491.41;2218510;77;29920;-64
2021/01/14 08:23:29;;;;;;;25.15;14.20;;;;;;;1.62;75.83;99498.30;2190682;79;31215;-63
2021/01/14 08:26:55;;;;;;;23.47;14.38;;;;;;;1.66;75.77;99509.20;2213304;79;33123;-63
2021/01/14 08:30:01;;;;;;;23.15;14.35;;;;;;;1.69;75.85;99510.45;2196344;79;28994;-63
2021/01/14 08:33:06;;;;;;;25.37;13.45;;;;;;;1.73;75.83;99523.11;2238644;79;27728;-64
2021/01/14 08:36:10;;;;;;;23.38;11.97;;;;;;;1.73;75.69;99533.23;2221465;77;28699;-64
2021/01/14 08:39:18;;;;;;;22.10;12.25;;;;;;;1.73;75.69;99540.27;2209345;78;30408;-64
2021/01/14 08:42:35;;;;;;;20.15;12.68;;;;;;;1.74;75.77;99545.97;2229744;78;33122;-64
2021/01/14 08:45:55;;;;;;;16.73;10.87;;;;;;;1.75;75.79;99544.59;2233514;77;27712;-66
2021/01/14 08:49:14;;;;;;;20.68;11.45;;;;;;;1.73;75.89;99558.76;2191358;78;27701;-65
2021/01/14 08:52:17;;;;;;;20.82;11.50;;;;;;;1.75;75.88;99564.87;2190679;78;28878;-62
2021/01/14 08:55:21;;;;;;;19.90;11.83;;;;;;;1.81;75.90;99573.97;2189078;78;32113;-63
2021/01/14 08:58:44;;;;;;;23.50;14.00;;;;;;;1.84;75.81;99577.83;2192516;80;33984;-63
2021/01/14 09:01:46;;;;;;;24.52;13.90;;;;;;;1.87;75.82;99584.35;2199874;78;28471;-62
2021/01/14 09:04:49;;;;;;;22.85;14.18;;;;;;;1.86;75.73;99593.19;2200585;80;27712;-63
2021/01/14 09:08:04;;;;;;;23.95;14.95;;;;;;;1.86;75.80;99609.50;2194476;80;28892;-63
2021/01/14 09:11:01;;;;;;;25.02;16.67;;;;;;;1.87;75.77;99614.73;2191614;78;31210;-63
2021/01/14 09:14:14;;;;;;;24.95;17.30;;;;;;;1.89;75.77;99623.48;2202069;78;33122;-63
2021/01/14 09:17:16;;;;;;;30.57;19.02;;;;;;;1.89;75.84;99633.20;2196045;78;28844;-64
2021/01/14 09:20:18;;;;;;;28.42;18.75;;;;;;;1.91;75.97;99633.56;2182604;80;27704;-64
2021/01/14 09:23:24;;;;;;;32.93;21.62;;;;;;;1.93;75.90;99641.00;2198889;78;28850;-64
2021/01/14 09:26:26;;;;;;;28.55;21.48;;;;;;;1.94;75.95;99648.45;2191599;80;31143;-64
2021/01/14 09:29:31;;;;;;;30.82;20.48;;;;;;;1.99;75.98;99656.30;2190318;78;33063;-65
2021/01/14 09:32:34;;;;;;;29.65;20.65;;;;;;;2.02;75.95;99659.72;2193450;80;28856;-65
2021/01/14 09:35:57;;;;;;;37.93;23.90;;;;;;;2.05;76.03;99661.41;2193638;80;27735;-64
2021/01/14 09:39:06;;;;;;;33.75;22.00;;;;;;;2.10;76.05;99659.52;2103163;84;28901;-64
2021/01/14 09:42:11;;;;;;;35.70;24.18;;;;;;;2.18;76.06;99663.30;2107587;83;31129;-62
2021/01/14 09:45:14;;;;;;;33.10;23.20;;;;;;;2.26;76.12;99674.52;2105953;83;34088;-62
2021/01/14 09:48:22;;;;;;;38.30;25.35;;;;;;;2.35;76.18;99681.34;2105573;83;29877;-63
2021/01/14 09:51:24;;;;;;;41.08;27.75;;;;;;;2.45;76.10;99688.58;2103286;83;27743;-62
2021/01/14 09:54:27;;;;;;;48.40;31.45;;;;;;;2.48;75.96;99691.15;2106424;83;29245;-61
2021/01/14 09:57:31;;;;;;;36.90;26.57;;;;;;;2.48;75.87;99697.77;2102170;83;31088;-62
2021/01/14 10:00:34;;;;;;;41.60;28.07;;;;;;;2.48;75.81;99698.64;2109586;83;33211;-63
2021/01/14 10:03:50;;;;;;;46.67;29.00;;;;;;;2.51;75.86;99709.11;2231721;77;27781;-63
2021/01/14 10:07:03;;;;;;;47.88;29.00;;;;;;;2.48;75.79;99717.59;2182624;80;27833;-62
2021/01/14 10:10:08;;;;;;;47.17;30.05;;;;;;;2.51;75.94;99725.45;2190631;80;28913;-61
2021/01/14 10:13:14;;;;;;;48.87;30.92;;;;;;;2.56;75.86;99731.03;2195164;78;31143;-62
2021/01/14 10:16:25;;;;;;;53.30;32.10;;;;;;;2.57;75.76;99735.84;2188495;80;33189;-62
2021/01/14 10:19:27;;;;;;;50.73;31.20;;;;;;;2.62;75.85;99737.08;2182145;78;29106;-63
2021/01/14 10:22:30;;;;;;;55.55;32.70;;;;;;;2.65;75.75;99737.00;2199330;80;27827;-64
2021/01/14 10:25:32;;;;;;;50.00;32.75;;;;;;;2.70;75.78;99750.52;2189205;80;28997;-63
2021/01/14 10:28:45;;;;;;;54.67;33.85;;;;;;;2.77;75.55;99755.62;2194759;78;32318;-65
2021/01/14 10:31:48;;;;;;;61.88;36.08;;;;;;;2.82;75.72;99755.05;2189659;80;33530;-64
2021/01/14 10:34:52;;;;;;;57.05;35.95;;;;;;;2.96;75.66;99759.98;2196903;80;28926;-65
2021/01/14 10:38:16;;;;;;;63.13;37.30;;;;;;;3.02;75.41;99771.27;2193170;80;28173;-65
2021/01/14 10:44:59;;;;;;;56.83;34.10;;;;;;;3.13;75.15;99776.27;2239903;77;27816;-61
2021/01/14 10:48:17;;;;;;;56.68;33.73;;;;;;;3.05;75.02;99790.16;2209187;78;27879;-61
2021/01/14 10:51:32;;;;;;;58.08;35.30;;;;;;;3.06;74.96;99793.21;2223115;79;29787;-62
2021/01/14 10:54:35;;;;;;;61.23;36.77;;;;;;;3.12;74.97;99798.35;2222358;78;32113;-62
2021/01/14 10:57:55;;;;;;;60.50;38.88;;;;;;;3.19;74.89;99815.78;2230512;78;33123;-63
2021/01/14 11:00:57;;;;;;;62.60;39.03;;;;;;;3.21;74.61;99815.77;2193010;80;28598;-63
2021/01/14 11:04:07;;;;;;;63.68;38.40;;;;;;;3.19;74.70;99810.96;2189606;80;27682;-61
2021/01/14 11:07:13;;;;;;;58.73;36.85;;;;;;;3.14;74.31;99807.56;2192818;80;28835;-64
2021/01/14 11:10:15;;;;;;;63.42;38.28;;;;;;;3.06;74.24;99822.32;2196259;80;31239;-61
2021/01/14 11:13:20;;;;;;;65.42;37.73;;;;;;;2.96;74.20;99836.25;2200098;80;33098;-62
2021/01/14 11:16:27;;;;;;;64.20;37.20;;;;;;;2.85;74.35;99836.52;2191968;80;28862;-61
2021/01/14 11:19:31;;;;;;;62.03;37.95;;;;;;;2.77;74.09;99839.83;2197322;80;27668;-63
2021/01/14 11:22:33;;;;;;;58.70;34.67;;;;;;;2.69;74.41;99840.45;2213991;80;28621;-61
2021/01/14 11:25:35;;;;;;;62.65;36.50;;;;;;;2.63;74.27;99842.80;2209376;80;31127;-62
2021/01/14 11:28:38;;;;;;;66.57;38.73;;;;;;;2.54;74.17;99857.11;2200361;80;34515;-62
2021/01/14 11:31:41;;;;;;;56.53;33.58;;;;;;;2.46;74.40;99852.91;2160381;80;28977;-62
2021/01/14 11:34:44;;;;;;;57.80;34.50;;;;;;;2.41;74.50;99859.16;2200882;80;27833;-63
2021/01/14 11:37:47;;;;;;;52.85;31.48;;;;;;;2.34;74.25;99866.84;2179015;79;28828;-66
2021/01/14 11:40:51;;;;;;;52.17;29.10;;;;;;;2.27;74.43;99868.75;2195455;80;31147;-63
2021/01/14 11:43:54;;;;;;;54.75;29.57;;;;;;;2.22;74.31;99871.94;2138227;81;33186;-65
2021/01/14 11:46:57;;;;;;;49.88;27.32;;;;;;;2.19;74.57;99867.19;2140914;81;28897;-62
2021/01/14 11:49:59;;;;;;;45.75;27.32;;;;;;;2.19;74.24;99883.89;2135353;83;27672;-62
2021/01/14 11:53:02;;;;;;;56.00;30.65;;;;;;;2.20;74.49;99889.59;2135328;83;28836;-62
2021/01/14 11:56:06;;;;;;;50.17;28.45;;;;;;;2.26;74.56;99894.77;2134607;81;31098;-62
2021/01/14 11:59:09;;;;;;;55.23;27.07;;;;;;;2.33;74.22;99894.61;2134994;83;34339;-62
2021/01/14 12:02:11;;;;;;;48.20;26.15;;;;;;;2.40;74.45;99897.08;2095800;83;29285;-64
2021/01/14 12:05:14;;;;;;;40.20;23.50;;;;;;;2.49;74.25;99903.93;2134527;83;27862;-61
2021/01/14 12:08:18;;;;;;;47.00;25.25;;;;;;;2.54;73.66;99906.03;2139065;82;29718;-62
2021/01/14 12:11:22;;;;;;;45.75;26.55;;;;;;;2.54;73.43;99911.78;2131729;82;32061;-63
2021/01/14 12:14:25;;;;;;;45.63;26.02;;;;;;;2.55;73.55;99920.98;2159640;81;32377;-63
2021/01/14 12:17:28;;;;;;;48.40;26.27;;;;;;;2.58;73.63;99930.18;2131611;82;30211;-65
2021/01/14 12:20:31;;;;;;;49.70;27.87;;;;;;;2.61;73.47;99932.34;2129081;82;27694;-63
2021/01/14 12:23:33;;;;;;;55.20;30.57;;;;;;;2.61;73.43;99934.98;2141937;81;30287;-63
2021/01/14 12:26:35;;;;;;;51.73;28.25;;;;;;;2.62;73.48;99940.23;2142536;82;30327;-63
2021/01/14 12:29:38;;;;;;;54.73;29.50;;;;;;;2.61;73.39;99940.28;2149973;82;33118;-63
2021/01/14 12:32:41;;;;;;;57.83;30.60;;;;;;;2.58;73.20;99946.05;2147178;82;29729;-63
2021/01/14 12:35:43;;;;;;;52.62;30.48;;;;;;;2.60;73.33;99951.75;2152338;82;27782;-63
2021/01/14 12:38:45;;;;;;;48.38;28.00;;;;;;;2.64;73.64;99942.86;2153100;82;29777;-63
2021/01/14 12:41:47;;;;;;;54.83;29.55;;;;;;;2.70;73.22;99957.24;2139229;82;31234;-64
2021/01/14 12:44:49;;;;;;;73.65;37.17;;;;;;;2.75;73.30;99959.34;2156285;81;33140;-65
2021/01/14 12:47:52;;;;;;;85.87;40.88;;;;;;;2.74;73.25;99965.53;2131721;82;28967;-64
2021/01/14 12:50:54;;;;;;;64.27;33.53;;;;;;;2.75;73.29;99969.92;2132386;82;27721;-64
2021/01/14 12:53:56;;;;;;;63.60;34.70;;;;;;;2.72;72.89;99971.30;2137217;82;28836;-64
2021/01/14 12:56:59;;;;;;;59.60;33.88;;;;;;;2.64;72.76;99970.63;2144451;82;30376;-63
2021/01/14 13:00:01;;;;;;;58.02;33.02;;;;;;;2.65;72.94;99975.87;2124991;82;33127;-63
2021/01/14 13:03:05;;;;;;;65.85;34.35;;;;;;;2.67;72.60;99984.64;2131400;82;28803;-65
2021/01/14 13:06:08;;;;;;;63.35;34.78;;;;;;;2.64;72.95;99991.78;2136518;82;27770;-63
2021/01/14 13:09:12;;;;;;;66.50;37.65;;;;;;;2.63;72.98;99989.57;2130126;82;28835;-64
2021/01/14 13:12:15;;;;;;;67.90;37.28;;;;;;;2.60;73.10;99987.45;2103485;82;31158;-63
2021/01/14 13:15:17;;;;;;;72.92;39.30;;;;;;;2.62;73.30;99989.62;2144434;82;34054;-64
2021/01/14 13:18:20;;;;;;;64.45;34.98;;;;;;;2.64;73.35;100003.69;2133571;82;30091;-65
2021/01/14 13:21:33;;;;;;;56.42;31.93;;;;;;;2.66;73.28;99999.20;2138708;82;27670;-65
2021/01/14 13:24:35;;;;;;;57.90;31.97;;;;;;;2.69;73.16;100008.40;2129817;82;29674;-63
2021/01/14 13:27:38;;;;;;;56.53;32.10;;;;;;;2.70;72.96;100011.46;2132300;82;31185;-64
2021/01/14 13:30:40;;;;;;;58.25;32.53;;;;;;;2.69;72.86;100016.33;2126057;82;33116;-64
2021/01/14 13:33:42;;;;;;;65.10;35.90;;;;;;;2.70;72.96;100020.28;2120573;82;29307;-64
2021/01/14 13:36:50;;;;;;;68.02;38.05;;;;;;;2.72;72.97;100022.88;2110909;84;27634;-63
2021/01/14 13:39:53;;;;;;;60.78;35.13;;;;;;;2.74;73.16;100025.05;2116241;82;29784;-63
2021/01/14 13:42:56;;;;;;;60.35;35.15;;;;;;;2.78;73.16;100035.09;2145802;79;32105;-63
2021/01/14 13:46:01;;;;;;;68.75;36.23;;;;;;;2.77;73.02;100040.86;2139058;83;33147;-61
2021/01/14 13:49:03;;;;;;;58.92;32.55;;;;;;;2.78;73.13;100037.74;2196849;80;29299;-63
2021/01/14 13:52:06;;;;;;;62.58;34.83;;;;;;;2.79;73.04;100044.34;2190912;80;27762;-62
2021/01/14 13:55:09;;;;;;;66.37;35.45;;;;;;;2.79;73.11;100044.78;2161170;80;28890;-62
2021/01/14 13:58:12;;;;;;;62.17;33.63;;;;;;;2.79;73.02;100043.45;2186532;80;32092;-63
2021/01/14 14:01:25;;;;;;;58.00;33.48;;;;;;;2.79;73.01;100051.39;2170398;80;34052;-62
2021/01/14 14:04:27;;;;;;;64.15;34.88;;;;;;;2.77;73.19;100051.44;2161147;81;29796;-62
2021/01/14 14:07:30;;;;;;;74.22;40.12;;;;;;;2.77;73.11;100056.73;2192148;80;27694;-63
2021/01/14 14:10:34;;;;;;;68.87;37.55;;;;;;;2.78;73.10;100054.50;2198143;80;28834;-62
2021/01/14 14:13:35;;;;;;;69.05;38.25;;;;;;;2.77;72.99;100056.73;2165171;80;30350;-64
2021/01/14 14:16:39;;;;;;;74.37;40.55;;;;;;;2.76;73.02;100062.03;2160739;82;33610;-63
2021/01/14 14:19:42;;;;;;;71.25;39.20;;;;;;;2.76;73.08;100064.24;2160479;80;28924;-62
2021/01/14 14:22:44;;;;;;;72.95;39.85;;;;;;;2.74;72.98;100070.87;2197407;80;27646;-63
2021/01/14 14:25:46;;;;;;;72.60;42.38;;;;;;;2.70;73.04;100068.33;2198596;80;28821;-63
2021/01/14 14:28:49;;;;;;;74.87;44.58;;;;;;;2.68;72.94;100073.66;2199051;80;31575;-63
2021/01/14 14:31:51;;;;;;;88.80;51.35;;;;;;;2.68;73.11;100072.77;2181078;80;33097;-63
2021/01/14 14:34:54;;;;;;;89.87;51.48;;;;;;;2.67;73.04;100080.29;2160937;80;28867;-63
2021/01/14 14:37:56;;;;;;;77.60;44.27;;;;;;;2.63;72.98;100079.95;2120966;83;27795;-63
2021/01/14 14:40:58;;;;;;;68.22;38.10;;;;;;;2.57;72.85;100088.42;2136973;83;28824;-62
2021/01/14 14:44:00;;;;;;;71.80;38.60;;;;;;;2.51;72.79;100083.71;2102809;83;31440;-63
2021/01/14 14:47:06;;;;;;;95.35;42.98;;;;;;;2.46;72.82;100090.86;2136809;82;33149;-63
2021/01/14 14:50:10;;;;;;;104.72;46.20;;;;;;;2.43;72.78;100088.69;2110619;83;28871;-63
2021/01/14 14:53:12;;;;;;;89.72;42.10;;;;;;;2.40;72.76;100092.70;2126302;83;27679;-64
2021/01/14 14:56:17;;;;;;;74.10;37.83;;;;;;;2.37;72.78;100093.23;2152549;82;28804;-63
2021/01/14 14:59:19;;;;;;;79.73;41.40;;;;;;;2.34;72.78;100096.81;2130941;82;31154;-63
2021/01/14 15:02:21;;;;;;;80.55;42.43;;;;;;;2.32;72.80;100105.22;2141652;82;33120;-63
2021/01/14 15:05:24;;;;;;;70.28;38.13;;;;;;;2.28;72.85;100101.77;2153427;82;28870;-63
2021/01/14 15:08:27;;;;;;;118.42;58.87;;;;;;;2.23;72.73;100104.08;2176605;81;28231;-63
2021/01/14 15:11:29;;;;;;;81.37;44.67;;;;;;;2.20;72.83;100108.09;2177323;81;28822;-64
2021/01/14 15:14:31;;;;;;;73.00;39.23;;;;;;;2.17;72.89;100105.50;2178517;81;31158;-63